sensor_id;sensor_type;location;lat;lon;timestamp;P1;durP1;ratioP1;P2;durP2;ratioP2
20008;SDS011;10165;42.662;23.260;2022-09-09T00:00:11;10.17;;;6.90;;
20008;SDS011;10165;42.662;23.260;2022-09-09T00:02:39;13.70;;;6.80;;
20008;SDS011;10165;42.662;23.260;2022-09-09T00:05:17;10.20;;;6.53;;
20008;SDS011;10165;42.662;23.260;2022-09-09T00:08:18;10.27;;;6.73;;
20008;SDS011;10165;42.662;23.260;2022-09-09T00:10:51;8.60;;;6.47;;
20008;SDS011;10165;42.662;23.260;2022-09-09T00:13:28;7.60;;;6.60;;
20008;SDS011;10165;42.662;23.260;2022-09-09T00:16:01;7.50;;;6.00;;
20008;SDS011;10165;42.662;23.260;2022-09-09T00:18:52;9.93;;;6.50;;
20008;SDS011;10165;42.662;23.260;2022-09-09T00:24:52;8.67;;;6.83;;
20008;SDS011;10165;42.662;23.260;2022-09-09T00:27:36;9.70;;;6.87;;
20008;SDS011;10165;42.662;23.260;2022-09-09T00:30:23;9.83;;;6.63;;
20008;SDS011;10165;42.662;23.260;2022-09-09T00:32:55;7.27;;;5.90;;
20008;SDS011;10165;42.662;23.260;2022-09-09T00:38:06;7.70;;;6.53;;
20008;SDS011;10165;42.662;23.260;2022-09-09T00:43:36;8.93;;;6.80;;
20008;SDS011;10165;42.662;23.260;2022-09-09T01:02:26;8.83;;;6.23;;
20008;SDS011;10165;42.662;23.260;2022-09-09T01:04:54;6.80;;;5.90;;
20008;SDS011;10165;42.662;23.260;2022-09-09T01:07:27;9.60;;;6.73;;
20008;SDS011;10165;42.662;23.260;2022-09-09T01:09:57;9.07;;;6.50;;
20008;SDS011;10165;42.662;23.260;2022-09-09T01:12:38;10.03;;;6.17;;
20008;SDS011;10165;42.662;23.260;2022-09-09T01:15:16;8.20;;;6.33;;
20008;SDS011;10165;42.662;23.260;2022-09-09T01:17:53;7.93;;;6.37;;
20008;SDS011;10165;42.662;23.260;2022-09-09T01:28:39;9.67;;;6.40;;
20008;SDS011;10165;42.662;23.260;2022-09-09T01:31:07;10.90;;;6.17;;
20008;SDS011;10165;42.662;23.260;2022-09-09T01:33:37;8.60;;;6.17;;
20008;SDS011;10165;42.662;23.260;2022-09-09T01:36:06;7.73;;;6.83;;
20008;SDS011;10165;42.662;23.260;2022-09-09T01:38:38;12.73;;;6.83;;
20008;SDS011;10165;42.662;23.260;2022-09-09T01:41:06;17.63;;;6.63;;
20008;SDS011;10165;42.662;23.260;2022-09-09T01:43:32;10.13;;;6.20;;
20008;SDS011;10165;42.662;23.260;2022-09-09T01:46:00;11.40;;;6.53;;
20008;SDS011;10165;42.662;23.260;2022-09-09T01:48:28;11.13;;;6.53;;
20008;SDS011;10165;42.662;23.260;2022-09-09T01:50:55;9.63;;;6.67;;
20008;SDS011;10165;42.662;23.260;2022-09-09T01:53:22;9.17;;;6.90;;
20008;SDS011;10165;42.662;23.260;2022-09-09T02:01:12;8.60;;;6.20;;
20008;SDS011;10165;42.662;23.260;2022-09-09T02:03:52;10.40;;;6.57;;
20008;SDS011;10165;42.662;23.260;2022-09-09T02:06:30;7.83;;;6.23;;
20008;SDS011;10165;42.662;23.260;2022-09-09T02:09:02;9.37;;;6.10;;
20008;SDS011;10165;42.662;23.260;2022-09-09T02:11:31;11.43;;;5.97;;
20008;SDS011;10165;42.662;23.260;2022-09-09T02:14:00;10.10;;;6.40;;
20008;SDS011;10165;42.662;23.260;2022-09-09T02:16:37;8.27;;;5.80;;
20008;SDS011;10165;42.662;23.260;2022-09-09T02:21:42;9.30;;;6.13;;
20008;SDS011;10165;42.662;23.260;2022-09-09T02:24:12;9.27;;;6.57;;
20008;SDS011;10165;42.662;23.260;2022-09-09T02:26:45;10.60;;;6.10;;
20008;SDS011;10165;42.662;23.260;2022-09-09T02:29:19;9.53;;;6.57;;
20008;SDS011;10165;42.662;23.260;2022-09-09T02:31:50;9.03;;;6.20;;
20008;SDS011;10165;42.662;23.260;2022-09-09T02:34:21;9.83;;;6.23;;
20008;SDS011;10165;42.662;23.260;2022-09-09T02:36:50;9.00;;;6.73;;
20008;SDS011;10165;42.662;23.260;2022-09-09T02:39:20;18.83;;;7.30;;
20008;SDS011;10165;42.662;23.260;2022-09-09T02:41:47;10.63;;;6.53;;
20008;SDS011;10165;42.662;23.260;2022-09-09T02:44:16;12.00;;;7.70;;
20008;SDS011;10165;42.662;23.260;2022-09-09T02:55:41;11.77;;;6.73;;
20008;SDS011;10165;42.662;23.260;2022-09-09T02:58:30;12.13;;;6.73;;
20008;SDS011;10165;42.662;23.260;2022-09-09T03:00:58;6.90;;;6.20;;
20008;SDS011;10165;42.662;23.260;2022-09-09T03:03:27;17.07;;;6.63;;
20008;SDS011;10165;42.662;23.260;2022-09-09T03:05:54;7.97;;;6.70;;
20008;SDS011;10165;42.662;23.260;2022-09-09T03:08:20;8.97;;;6.40;;
20008;SDS011;10165;42.662;23.260;2022-09-09T03:10:47;10.13;;;6.63;;
20008;SDS011;10165;42.662;23.260;2022-09-09T03:13:14;10.20;;;5.93;;
20008;SDS011;10165;42.662;23.260;2022-09-09T03:15:41;7.27;;;6.17;;
20008;SDS011;10165;42.662;23.260;2022-09-09T03:18:08;12.23;;;6.20;;
20008;SDS011;10165;42.662;23.260;2022-09-09T03:21:00;9.20;;;6.83;;
20008;SDS011;10165;42.662;23.260;2022-09-09T03:23:28;11.07;;;6.57;;
20008;SDS011;10165;42.662;23.260;2022-09-09T03:25:55;7.63;;;6.27;;
20008;SDS011;10165;42.662;23.260;2022-09-09T03:28:24;8.30;;;6.27;;
20008;SDS011;10165;42.662;23.260;2022-09-09T03:30:58;10.63;;;6.67;;
20008;SDS011;10165;42.662;23.260;2022-09-09T03:33:32;8.60;;;6.43;;
20008;SDS011;10165;42.662;23.260;2022-09-09T03:36:01;12.00;;;7.07;;
20008;SDS011;10165;42.662;23.260;2022-09-09T03:38:32;11.20;;;6.40;;
20008;SDS011;10165;42.662;23.260;2022-09-09T03:40:59;6.87;;;6.03;;
20008;SDS011;10165;42.662;23.260;2022-09-09T03:43:30;7.33;;;6.60;;
20008;SDS011;10165;42.662;23.260;2022-09-09T03:45:57;9.97;;;6.33;;
20008;SDS011;10165;42.662;23.260;2022-09-09T03:48:24;8.17;;;6.60;;
20008;SDS011;10165;42.662;23.260;2022-09-09T03:50:53;10.70;;;6.70;;
20008;SDS011;10165;42.662;23.260;2022-09-09T03:53:21;8.10;;;6.70;;
20008;SDS011;10165;42.662;23.260;2022-09-09T03:55:51;12.33;;;7.17;;
20008;SDS011;10165;42.662;23.260;2022-09-09T03:58:26;9.30;;;6.83;;
20008;SDS011;10165;42.662;23.260;2022-09-09T04:00:54;9.73;;;6.97;;
20008;SDS011;10165;42.662;23.260;2022-09-09T04:03:22;9.83;;;6.77;;
20008;SDS011;10165;42.662;23.260;2022-09-09T04:05:54;9.83;;;6.57;;
20008;SDS011;10165;42.662;23.260;2022-09-09T04:08:22;12.47;;;7.50;;
20008;SDS011;10165;42.662;23.260;2022-09-09T04:10:51;13.63;;;6.63;;
20008;SDS011;10165;42.662;23.260;2022-09-09T04:13:19;8.93;;;6.80;;
20008;SDS011;10165;42.662;23.260;2022-09-09T04:15:56;9.50;;;6.87;;
20008;SDS011;10165;42.662;23.260;2022-09-09T04:18:24;9.43;;;7.07;;
20008;SDS011;10165;42.662;23.260;2022-09-09T04:20:52;9.37;;;7.07;;
20008;SDS011;10165;42.662;23.260;2022-09-09T04:23:19;12.00;;;6.80;;
20008;SDS011;10165;42.662;23.260;2022-09-09T04:25:47;8.57;;;7.10;;
20008;SDS011;10165;42.662;23.260;2022-09-09T04:28:16;7.23;;;6.53;;
20008;SDS011;10165;42.662;23.260;2022-09-09T04:30:43;9.67;;;8.17;;
20008;SDS011;10165;42.662;23.260;2022-09-09T04:33:11;11.73;;;7.80;;
20008;SDS011;10165;42.662;23.260;2022-09-09T04:35:39;12.33;;;7.60;;
20008;SDS011;10165;42.662;23.260;2022-09-09T04:38:11;8.70;;;7.70;;
20008;SDS011;10165;42.662;23.260;2022-09-09T04:40:37;10.80;;;7.60;;
20008;SDS011;10165;42.662;23.260;2022-09-09T04:43:08;9.77;;;7.27;;
20008;SDS011;10165;42.662;23.260;2022-09-09T04:45:40;11.43;;;7.80;;
20008;SDS011;10165;42.662;23.260;2022-09-09T04:48:07;14.23;;;8.13;;
20008;SDS011;10165;42.662;23.260;2022-09-09T04:50:38;15.17;;;7.47;;
20008;SDS011;10165;42.662;23.260;2022-09-09T04:53:05;13.83;;;8.70;;
20008;SDS011;10165;42.662;23.260;2022-09-09T04:55:32;15.73;;;7.83;;
20008;SDS011;10165;42.662;23.260;2022-09-09T04:58:06;10.80;;;8.23;;
20008;SDS011;10165;42.662;23.260;2022-09-09T05:00:34;9.60;;;7.83;;
20008;SDS011;10165;42.662;23.260;2022-09-09T05:03:04;13.73;;;7.73;;
20008;SDS011;10165;42.662;23.260;2022-09-09T05:05:32;13.73;;;7.97;;
20008;SDS011;10165;42.662;23.260;2022-09-09T05:08:05;13.40;;;8.23;;
20008;SDS011;10165;42.662;23.260;2022-09-09T05:10:36;12.83;;;9.83;;
20008;SDS011;10165;42.662;23.260;2022-09-09T05:13:04;13.53;;;9.33;;
20008;SDS011;10165;42.662;23.260;2022-09-09T05:15:32;12.87;;;9.10;;
20008;SDS011;10165;42.662;23.260;2022-09-09T05:18:00;16.20;;;8.37;;
20008;SDS011;10165;42.662;23.260;2022-09-09T05:20:29;12.30;;;7.90;;
20008;SDS011;10165;42.662;23.260;2022-09-09T05:22:56;18.60;;;10.30;;
20008;SDS011;10165;42.662;23.260;2022-09-09T05:25:23;11.63;;;9.37;;
20008;SDS011;10165;42.662;23.260;2022-09-09T05:27:52;14.60;;;9.77;;
20008;SDS011;10165;42.662;23.260;2022-09-09T05:30:20;14.27;;;9.40;;
20008;SDS011;10165;42.662;23.260;2022-09-09T05:32:48;15.73;;;10.03;;
20008;SDS011;10165;42.662;23.260;2022-09-09T05:35:15;19.40;;;9.97;;
20008;SDS011;10165;42.662;23.260;2022-09-09T05:37:44;11.57;;;10.03;;
20008;SDS011;10165;42.662;23.260;2022-09-09T05:40:12;13.37;;;9.87;;
20008;SDS011;10165;42.662;23.260;2022-09-09T05:42:39;16.27;;;10.27;;
20008;SDS011;10165;42.662;23.260;2022-09-09T05:45:06;17.93;;;11.70;;
20008;SDS011;10165;42.662;23.260;2022-09-09T05:47:34;18.20;;;10.80;;
20008;SDS011;10165;42.662;23.260;2022-09-09T05:50:03;16.50;;;10.93;;
20008;SDS011;10165;42.662;23.260;2022-09-09T05:52:30;17.80;;;10.70;;
20008;SDS011;10165;42.662;23.260;2022-09-09T05:54:58;17.77;;;11.17;;
20008;SDS011;10165;42.662;23.260;2022-09-09T05:57:25;14.27;;;10.97;;
20008;SDS011;10165;42.662;23.260;2022-09-09T05:59:52;17.63;;;11.57;;
20008;SDS011;10165;42.662;23.260;2022-09-09T06:02:19;14.10;;;11.13;;
20008;SDS011;10165;42.662;23.260;2022-09-09T06:04:46;15.33;;;11.10;;
20008;SDS011;10165;42.662;23.260;2022-09-09T06:07:13;14.80;;;10.77;;
20008;SDS011;10165;42.662;23.260;2022-09-09T06:09:40;18.57;;;10.77;;
20008;SDS011;10165;42.662;23.260;2022-09-09T06:12:10;18.70;;;10.60;;
20008;SDS011;10165;42.662;23.260;2022-09-09T06:14:37;15.00;;;11.53;;
20008;SDS011;10165;42.662;23.260;2022-09-09T06:17:08;17.37;;;10.63;;
20008;SDS011;10165;42.662;23.260;2022-09-09T06:19:35;12.47;;;10.07;;
20008;SDS011;10165;42.662;23.260;2022-09-09T06:22:01;24.23;;;10.53;;
20008;SDS011;10165;42.662;23.260;2022-09-09T06:24:28;20.77;;;11.47;;
20008;SDS011;10165;42.662;23.260;2022-09-09T06:26:56;13.63;;;10.00;;
20008;SDS011;10165;42.662;23.260;2022-09-09T06:29:23;15.10;;;9.90;;
20008;SDS011;10165;42.662;23.260;2022-09-09T06:31:50;18.07;;;11.10;;
20008;SDS011;10165;42.662;23.260;2022-09-09T06:34:17;16.53;;;11.00;;
20008;SDS011;10165;42.662;23.260;2022-09-09T06:36:44;14.57;;;11.20;;
20008;SDS011;10165;42.662;23.260;2022-09-09T06:39:12;11.97;;;10.30;;
20008;SDS011;10165;42.662;23.260;2022-09-09T06:41:40;20.40;;;10.90;;
20008;SDS011;10165;42.662;23.260;2022-09-09T06:44:09;18.40;;;10.57;;
20008;SDS011;10165;42.662;23.260;2022-09-09T06:46:38;16.17;;;10.93;;
20008;SDS011;10165;42.662;23.260;2022-09-09T06:49:07;13.13;;;9.93;;
20008;SDS011;10165;42.662;23.260;2022-09-09T06:51:35;13.60;;;9.97;;
20008;SDS011;10165;42.662;23.260;2022-09-09T06:54:03;19.70;;;10.60;;
20008;SDS011;10165;42.662;23.260;2022-09-09T06:56:37;17.40;;;10.20;;
20008;SDS011;10165;42.662;23.260;2022-09-09T06:59:08;18.63;;;11.20;;
20008;SDS011;10165;42.662;23.260;2022-09-09T07:01:36;13.70;;;10.10;;
20008;SDS011;10165;42.662;23.260;2022-09-09T07:04:07;23.97;;;10.13;;
20008;SDS011;10165;42.662;23.260;2022-09-09T07:06:36;16.90;;;10.83;;
20008;SDS011;10165;42.662;23.260;2022-09-09T07:09:07;12.57;;;10.07;;
20008;SDS011;10165;42.662;23.260;2022-09-09T07:11:53;14.03;;;11.27;;
20008;SDS011;10165;42.662;23.260;2022-09-09T07:14:20;13.80;;;10.93;;
20008;SDS011;10165;42.662;23.260;2022-09-09T07:16:48;14.23;;;11.40;;
20008;SDS011;10165;42.662;23.260;2022-09-09T07:19:15;15.27;;;10.70;;
20008;SDS011;10165;42.662;23.260;2022-09-09T07:21:42;13.07;;;11.10;;
20008;SDS011;10165;42.662;23.260;2022-09-09T07:24:09;18.63;;;12.07;;
20008;SDS011;10165;42.662;23.260;2022-09-09T07:26:39;19.20;;;11.07;;
20008;SDS011;10165;42.662;23.260;2022-09-09T07:29:08;13.63;;;10.43;;
20008;SDS011;10165;42.662;23.260;2022-09-09T07:31:36;19.60;;;10.97;;
20008;SDS011;10165;42.662;23.260;2022-09-09T07:34:06;14.00;;;9.73;;
20008;SDS011;10165;42.662;23.260;2022-09-09T07:36:34;16.20;;;10.73;;
20008;SDS011;10165;42.662;23.260;2022-09-09T07:39:04;20.13;;;10.80;;
20008;SDS011;10165;42.662;23.260;2022-09-09T07:41:38;16.90;;;10.90;;
20008;SDS011;10165;42.662;23.260;2022-09-09T07:44:10;14.47;;;10.13;;
20008;SDS011;10165;42.662;23.260;2022-09-09T07:46:39;11.63;;;8.63;;
20008;SDS011;10165;42.662;23.260;2022-09-09T07:49:07;11.83;;;9.23;;
20008;SDS011;10165;42.662;23.260;2022-09-09T07:51:36;10.77;;;9.13;;
20008;SDS011;10165;42.662;23.260;2022-09-09T07:54:06;12.67;;;9.10;;
20008;SDS011;10165;42.662;23.260;2022-09-09T07:56:37;15.03;;;9.83;;
20008;SDS011;10165;42.662;23.260;2022-09-09T07:59:07;16.57;;;10.27;;
20008;SDS011;10165;42.662;23.260;2022-09-09T08:01:36;13.00;;;9.57;;
20008;SDS011;10165;42.662;23.260;2022-09-09T08:04:26;12.30;;;8.90;;
20008;SDS011;10165;42.662;23.260;2022-09-09T08:06:58;13.40;;;8.77;;
20008;SDS011;10165;42.662;23.260;2022-09-09T08:09:26;11.63;;;8.50;;
20008;SDS011;10165;42.662;23.260;2022-09-09T08:11:56;10.90;;;8.07;;
20008;SDS011;10165;42.662;23.260;2022-09-09T08:14:23;13.43;;;9.47;;
20008;SDS011;10165;42.662;23.260;2022-09-09T08:16:50;13.87;;;9.63;;
20008;SDS011;10165;42.662;23.260;2022-09-09T08:19:20;9.97;;;8.50;;
20008;SDS011;10165;42.662;23.260;2022-09-09T08:21:47;13.83;;;9.57;;
20008;SDS011;10165;42.662;23.260;2022-09-09T08:24:19;11.63;;;8.70;;
20008;SDS011;10165;42.662;23.260;2022-09-09T08:26:49;15.40;;;8.83;;
20008;SDS011;10165;42.662;23.260;2022-09-09T08:29:17;13.00;;;9.37;;
20008;SDS011;10165;42.662;23.260;2022-09-09T08:31:47;12.27;;;9.20;;
20008;SDS011;10165;42.662;23.260;2022-09-09T08:34:21;12.00;;;9.20;;
20008;SDS011;10165;42.662;23.260;2022-09-09T08:36:48;13.63;;;9.73;;
20008;SDS011;10165;42.662;23.260;2022-09-09T08:39:17;12.07;;;8.50;;
20008;SDS011;10165;42.662;23.260;2022-09-09T08:42:01;11.30;;;8.37;;
20008;SDS011;10165;42.662;23.260;2022-09-09T08:50:25;9.77;;;8.10;;
20008;SDS011;10165;42.662;23.260;2022-09-09T09:03:53;11.20;;;7.70;;
20008;SDS011;10165;42.662;23.260;2022-09-09T09:06:44;13.50;;;7.80;;
20008;SDS011;10165;42.662;23.260;2022-09-09T09:09:21;15.10;;;7.47;;
20008;SDS011;10165;42.662;23.260;2022-09-09T09:11:57;10.47;;;7.53;;
20008;SDS011;10165;42.662;23.260;2022-09-09T09:14:28;7.70;;;6.30;;
20008;SDS011;10165;42.662;23.260;2022-09-09T09:19:36;13.17;;;7.23;;
20008;SDS011;10165;42.662;23.260;2022-09-09T09:22:17;9.43;;;7.00;;
20008;SDS011;10165;42.662;23.260;2022-09-09T09:24:55;16.50;;;6.93;;
20008;SDS011;10165;42.662;23.260;2022-09-09T09:27:30;9.97;;;6.67;;
20008;SDS011;10165;42.662;23.260;2022-09-09T09:30:22;13.57;;;7.40;;
20008;SDS011;10165;42.662;23.260;2022-09-09T09:35:53;11.33;;;5.73;;
20008;SDS011;10165;42.662;23.260;2022-09-09T09:38:21;9.87;;;6.57;;
20008;SDS011;10165;42.662;23.260;2022-09-09T09:41:10;10.63;;;5.53;;
20008;SDS011;10165;42.662;23.260;2022-09-09T09:43:37;8.17;;;5.53;;
20008;SDS011;10165;42.662;23.260;2022-09-09T09:46:22;10.03;;;5.77;;
20008;SDS011;10165;42.662;23.260;2022-09-09T09:49:00;13.30;;;6.10;;
20008;SDS011;10165;42.662;23.260;2022-09-09T09:51:32;9.33;;;6.37;;
20008;SDS011;10165;42.662;23.260;2022-09-09T09:56:39;9.17;;;6.50;;
20008;SDS011;10165;42.662;23.260;2022-09-09T10:04:44;8.33;;;5.53;;
20008;SDS011;10165;42.662;23.260;2022-09-09T10:07:13;8.07;;;5.70;;
20008;SDS011;10165;42.662;23.260;2022-09-09T10:09:44;9.47;;;5.93;;
20008;SDS011;10165;42.662;23.260;2022-09-09T10:12:20;27.50;;;8.93;;
20008;SDS011;10165;42.662;23.260;2022-09-09T10:31:29;10.93;;;6.17;;
20008;SDS011;10165;42.662;23.260;2022-09-09T10:36:56;8.97;;;5.73;;
20008;SDS011;10165;42.662;23.260;2022-09-09T10:42:05;7.67;;;5.50;;
20008;SDS011;10165;42.662;23.260;2022-09-09T10:44:42;8.93;;;5.63;;
20008;SDS011;10165;42.662;23.260;2022-09-09T10:50:26;7.17;;;5.73;;
20008;SDS011;10165;42.662;23.260;2022-09-09T10:56:38;8.33;;;6.47;;
20008;SDS011;10165;42.662;23.260;2022-09-09T10:59:16;11.60;;;5.87;;
20008;SDS011;10165;42.662;23.260;2022-09-09T11:01:50;14.53;;;7.43;;
20008;SDS011;10165;42.662;23.260;2022-09-09T11:04:24;12.57;;;6.53;;
20008;SDS011;10165;42.662;23.260;2022-09-09T11:06:58;10.30;;;6.27;;
20008;SDS011;10165;42.662;23.260;2022-09-09T11:09:39;17.03;;;7.93;;
20008;SDS011;10165;42.662;23.260;2022-09-09T11:12:13;14.13;;;6.87;;
20008;SDS011;10165;42.662;23.260;2022-09-09T11:17:30;8.90;;;6.17;;
20008;SDS011;10165;42.662;23.260;2022-09-09T11:20:20;16.17;;;7.10;;
20008;SDS011;10165;42.662;23.260;2022-09-09T11:25:35;13.33;;;7.10;;
20008;SDS011;10165;42.662;23.260;2022-09-09T11:28:16;10.67;;;6.40;;
20008;SDS011;10165;42.662;23.260;2022-09-09T11:34:18;9.93;;;6.67;;
20008;SDS011;10165;42.662;23.260;2022-09-09T11:36:54;10.20;;;6.63;;
20008;SDS011;10165;42.662;23.260;2022-09-09T11:44:40;10.17;;;6.40;;
20008;SDS011;10165;42.662;23.260;2022-09-09T11:55:39;8.77;;;7.00;;
20008;SDS011;10165;42.662;23.260;2022-09-09T12:06:24;9.43;;;6.53;;
20008;SDS011;10165;42.662;23.260;2022-09-09T12:08:56;11.10;;;7.10;;
20008;SDS011;10165;42.662;23.260;2022-09-09T12:11:37;16.07;;;7.00;;
20008;SDS011;10165;42.662;23.260;2022-09-09T12:14:03;13.07;;;7.10;;
20008;SDS011;10165;42.662;23.260;2022-09-09T12:16:32;8.60;;;6.57;;
20008;SDS011;10165;42.662;23.260;2022-09-09T12:24:17;13.53;;;6.23;;
20008;SDS011;10165;42.662;23.260;2022-09-09T12:26:56;9.70;;;5.87;;
20008;SDS011;10165;42.662;23.260;2022-09-09T12:32:19;12.37;;;7.20;;
20008;SDS011;10165;42.662;23.260;2022-09-09T12:34:59;15.20;;;7.30;;
20008;SDS011;10165;42.662;23.260;2022-09-09T12:42:46;19.27;;;6.53;;
20008;SDS011;10165;42.662;23.260;2022-09-09T12:45:17;7.43;;;4.57;;
20008;SDS011;10165;42.662;23.260;2022-09-09T12:50:31;7.80;;;4.37;;
20008;SDS011;10165;42.662;23.260;2022-09-09T12:53:02;6.73;;;4.33;;
20008;SDS011;10165;42.662;23.260;2022-09-09T12:55:48;12.53;;;4.27;;
20008;SDS011;10165;42.662;23.260;2022-09-09T12:58:20;12.77;;;4.70;;
20008;SDS011;10165;42.662;23.260;2022-09-09T13:00:54;9.67;;;4.70;;
20008;SDS011;10165;42.662;23.260;2022-09-09T13:03:22;11.03;;;4.13;;
20008;SDS011;10165;42.662;23.260;2022-09-09T13:05:51;8.73;;;4.80;;
20008;SDS011;10165;42.662;23.260;2022-09-09T13:08:19;8.20;;;5.67;;
20008;SDS011;10165;42.662;23.260;2022-09-09T13:10:55;8.67;;;4.93;;
20008;SDS011;10165;42.662;23.260;2022-09-09T13:13:41;11.50;;;4.63;;
20008;SDS011;10165;42.662;23.260;2022-09-09T13:16:28;11.07;;;5.07;;
20008;SDS011;10165;42.662;23.260;2022-09-09T13:19:13;6.63;;;5.13;;
20008;SDS011;10165;42.662;23.260;2022-09-09T13:21:45;8.57;;;5.07;;
20008;SDS011;10165;42.662;23.260;2022-09-09T13:26:59;8.90;;;5.20;;
20008;SDS011;10165;42.662;23.260;2022-09-09T13:29:51;11.83;;;6.70;;
20008;SDS011;10165;42.662;23.260;2022-09-09T13:32:24;10.37;;;6.50;;
20008;SDS011;10165;42.662;23.260;2022-09-09T13:34:59;13.67;;;6.77;;
20008;SDS011;10165;42.662;23.260;2022-09-09T13:40:05;16.27;;;7.10;;
20008;SDS011;10165;42.662;23.260;2022-09-09T13:42:37;11.17;;;6.57;;
20008;SDS011;10165;42.662;23.260;2022-09-09T13:45:15;17.37;;;7.37;;
20008;SDS011;10165;42.662;23.260;2022-09-09T13:47:46;11.07;;;6.80;;
20008;SDS011;10165;42.662;23.260;2022-09-09T13:52:49;15.13;;;6.87;;
20008;SDS011;10165;42.662;23.260;2022-09-09T13:55:20;11.60;;;6.17;;
20008;SDS011;10165;42.662;23.260;2022-09-09T13:57:53;8.83;;;6.10;;
20008;SDS011;10165;42.662;23.260;2022-09-09T14:00:31;15.47;;;7.20;;
20008;SDS011;10165;42.662;23.260;2022-09-09T14:02:59;13.90;;;7.17;;
20008;SDS011;10165;42.662;23.260;2022-09-09T14:05:31;14.63;;;6.87;;
20008;SDS011;10165;42.662;23.260;2022-09-09T14:07:59;10.77;;;6.57;;
20008;SDS011;10165;42.662;23.260;2022-09-09T14:10:29;12.27;;;5.70;;
20008;SDS011;10165;42.662;23.260;2022-09-09T14:12:56;13.73;;;6.30;;
20008;SDS011;10165;42.662;23.260;2022-09-09T14:15:23;9.70;;;6.23;;
20008;SDS011;10165;42.662;23.260;2022-09-09T14:17:50;11.73;;;7.17;;
20008;SDS011;10165;42.662;23.260;2022-09-09T14:20:18;28.73;;;9.33;;
20008;SDS011;10165;42.662;23.260;2022-09-09T14:22:45;16.00;;;7.23;;
20008;SDS011;10165;42.662;23.260;2022-09-09T14:25:14;17.23;;;7.43;;
20008;SDS011;10165;42.662;23.260;2022-09-09T14:27:41;22.03;;;8.47;;
20008;SDS011;10165;42.662;23.260;2022-09-09T14:30:08;13.90;;;6.93;;
20008;SDS011;10165;42.662;23.260;2022-09-09T14:32:36;12.60;;;7.07;;
20008;SDS011;10165;42.662;23.260;2022-09-09T14:35:02;14.00;;;6.87;;
20008;SDS011;10165;42.662;23.260;2022-09-09T14:37:30;12.17;;;6.37;;
20008;SDS011;10165;42.662;23.260;2022-09-09T14:39:59;9.23;;;6.13;;
20008;SDS011;10165;42.662;23.260;2022-09-09T14:42:29;14.37;;;6.37;;
20008;SDS011;10165;42.662;23.260;2022-09-09T14:44:56;11.13;;;6.97;;
20008;SDS011;10165;42.662;23.260;2022-09-09T14:47:23;10.10;;;7.13;;
20008;SDS011;10165;42.662;23.260;2022-09-09T14:49:50;15.63;;;6.23;;
20008;SDS011;10165;42.662;23.260;2022-09-09T14:52:16;10.17;;;7.13;;
20008;SDS011;10165;42.662;23.260;2022-09-09T14:54:45;9.57;;;7.17;;
20008;SDS011;10165;42.662;23.260;2022-09-09T14:57:12;9.70;;;6.87;;
20008;SDS011;10165;42.662;23.260;2022-09-09T14:59:39;12.90;;;7.23;;
20008;SDS011;10165;42.662;23.260;2022-09-09T15:02:07;10.53;;;7.43;;
20008;SDS011;10165;42.662;23.260;2022-09-09T15:04:35;14.40;;;6.77;;
20008;SDS011;10165;42.662;23.260;2022-09-09T15:07:02;10.60;;;6.40;;
20008;SDS011;10165;42.662;23.260;2022-09-09T15:09:29;15.97;;;6.90;;
20008;SDS011;10165;42.662;23.260;2022-09-09T15:11:56;10.77;;;7.00;;
20008;SDS011;10165;42.662;23.260;2022-09-09T15:14:27;11.03;;;6.53;;
20008;SDS011;10165;42.662;23.260;2022-09-09T15:16:54;11.07;;;6.70;;
20008;SDS011;10165;42.662;23.260;2022-09-09T15:19:20;7.77;;;6.37;;
20008;SDS011;10165;42.662;23.260;2022-09-09T15:21:47;17.30;;;6.87;;
20008;SDS011;10165;42.662;23.260;2022-09-09T15:24:13;8.63;;;6.93;;
20008;SDS011;10165;42.662;23.260;2022-09-09T15:26:40;13.37;;;10.20;;
20008;SDS011;10165;42.662;23.260;2022-09-09T15:29:07;16.13;;;9.10;;
20008;SDS011;10165;42.662;23.260;2022-09-09T15:31:35;16.90;;;7.93;;
20008;SDS011;10165;42.662;23.260;2022-09-09T15:34:06;9.67;;;6.63;;
20008;SDS011;10165;42.662;23.260;2022-09-09T15:36:39;20.30;;;7.30;;
20008;SDS011;10165;42.662;23.260;2022-09-09T15:39:13;10.77;;;6.77;;
20008;SDS011;10165;42.662;23.260;2022-09-09T15:41:42;11.93;;;6.80;;
20008;SDS011;10165;42.662;23.260;2022-09-09T15:44:10;8.00;;;6.30;;
20008;SDS011;10165;42.662;23.260;2022-09-09T15:46:41;13.20;;;6.70;;
20008;SDS011;10165;42.662;23.260;2022-09-09T15:49:13;14.93;;;6.47;;
20008;SDS011;10165;42.662;23.260;2022-09-09T15:51:50;11.73;;;6.80;;
20008;SDS011;10165;42.662;23.260;2022-09-09T15:54:25;13.20;;;6.67;;
20008;SDS011;10165;42.662;23.260;2022-09-09T15:56:55;11.80;;;6.07;;
20008;SDS011;10165;42.662;23.260;2022-09-09T15:59:24;13.07;;;7.47;;
20008;SDS011;10165;42.662;23.260;2022-09-09T16:01:52;19.50;;;6.93;;
20008;SDS011;10165;42.662;23.260;2022-09-09T16:04:20;10.20;;;6.60;;
20008;SDS011;10165;42.662;23.260;2022-09-09T16:06:52;11.10;;;7.03;;
20008;SDS011;10165;42.662;23.260;2022-09-09T16:09:20;11.53;;;6.10;;
20008;SDS011;10165;42.662;23.260;2022-09-09T16:11:48;10.37;;;6.27;;
20008;SDS011;10165;42.662;23.260;2022-09-09T16:14:15;12.03;;;6.27;;
20008;SDS011;10165;42.662;23.260;2022-09-09T16:16:42;11.93;;;6.97;;
20008;SDS011;10165;42.662;23.260;2022-09-09T16:19:09;8.83;;;6.33;;
20008;SDS011;10165;42.662;23.260;2022-09-09T16:21:39;12.93;;;6.77;;
20008;SDS011;10165;42.662;23.260;2022-09-09T16:24:12;17.23;;;6.67;;
20008;SDS011;10165;42.662;23.260;2022-09-09T16:26:44;12.03;;;7.23;;
20008;SDS011;10165;42.662;23.260;2022-09-09T16:29:12;12.57;;;7.03;;
20008;SDS011;10165;42.662;23.260;2022-09-09T16:31:40;12.33;;;6.17;;
20008;SDS011;10165;42.662;23.260;2022-09-09T16:34:08;14.33;;;6.37;;
20008;SDS011;10165;42.662;23.260;2022-09-09T16:36:36;10.50;;;5.63;;
20008;SDS011;10165;42.662;23.260;2022-09-09T16:39:09;12.77;;;6.03;;
20008;SDS011;10165;42.662;23.260;2022-09-09T16:41:38;14.20;;;6.97;;
20008;SDS011;10165;42.662;23.260;2022-09-09T16:44:07;15.63;;;6.63;;
20008;SDS011;10165;42.662;23.260;2022-09-09T16:46:36;14.23;;;6.47;;
20008;SDS011;10165;42.662;23.260;2022-09-09T16:49:06;12.30;;;6.00;;
20008;SDS011;10165;42.662;23.260;2022-09-09T16:51:37;9.73;;;6.00;;
20008;SDS011;10165;42.662;23.260;2022-09-09T16:54:07;13.57;;;6.10;;
20008;SDS011;10165;42.662;23.260;2022-09-09T16:56:35;10.63;;;6.07;;
20008;SDS011;10165;42.662;23.260;2022-09-09T16:59:05;15.77;;;7.13;;
20008;SDS011;10165;42.662;23.260;2022-09-09T17:01:35;14.20;;;6.50;;
20008;SDS011;10165;42.662;23.260;2022-09-09T17:04:05;12.00;;;6.60;;
20008;SDS011;10165;42.662;23.260;2022-09-09T17:06:34;15.93;;;6.83;;
20008;SDS011;10165;42.662;23.260;2022-09-09T17:09:02;12.10;;;6.40;;
20008;SDS011;10165;42.662;23.260;2022-09-09T17:11:31;15.23;;;6.97;;
20008;SDS011;10165;42.662;23.260;2022-09-09T17:13:58;11.37;;;6.53;;
20008;SDS011;10165;42.662;23.260;2022-09-09T17:16:27;9.70;;;6.23;;
20008;SDS011;10165;42.662;23.260;2022-09-09T17:18:56;8.83;;;6.10;;
20008;SDS011;10165;42.662;23.260;2022-09-09T17:21:29;14.33;;;6.73;;
20008;SDS011;10165;42.662;23.260;2022-09-09T17:23:57;14.63;;;6.80;;
20008;SDS011;10165;42.662;23.260;2022-09-09T17:26:26;10.97;;;6.97;;
20008;SDS011;10165;42.662;23.260;2022-09-09T17:28:55;9.57;;;6.33;;